Impacts TAF Board
For situational awareness. Not to be used for flight planning purposes.
IDs:

KPHL - Philadelphia Intl, PA, US

Issued at 2323 UTC 21 Sep 2021
Updated at 0014 UTC 22 Sep 2021
Potential Impact None Slight Moderate High
Time2354Z 22/01Z 22/02Z 22/03Z 22/04Z 22/05Z 22/06Z 22/07Z 22/08Z 22/09Z 22/10Z 22/11Z 22/12Z 22/13Z>>
Type OBS PRVL PRVL PRVL PRVL PRVL PRVL PRVL PRVL
  [TEMP]  
PRVL
  [TEMP]  
PRVL
  [TEMP]  
PRVL
  [TEMP]  
PRVL PRVL
VIS 10 >6 >6 >6 >6 >6 6 6 6 6 6 6 6 6
CIG 260 60 60 60 60 60 20 20 20
  [8]  
20
  [8]  
20
  [8]  
20
  [8]  
20 20
Cover BKN BKN BKN BKN BKN BKN BKN BKN BKN
  [BKN]  
BKN
  [BKN]  
BKN
  [BKN]  
BKN
  [BKN]  
BKN BKN
FltCat VFR VFR VFR VFR VFR VFR MVFR MVFR MVFR
  [IFR]  
MVFR
  [IFR]  
MVFR
  [IFR]  
MVFR
  [IFR]  
MVFR MVFR
WX -- -- -- -- -- -- BR BR BR
  [--]  
BR
  [--]  
BR
  [--]  
BR
  [--]  
BR BR
WDir 110 120 120 120 120 120 100 100 100
[100]
100
[100]
100
[100]
100
[100]
100 100
WSpd 6 6 6 6 6 6 4 4 4
  [4]  
4
  [4]  
4
  [4]  
4
  [4]  
4 4
WGst -- -- -- -- -- -- -- -- --
  [--]  
--
  [--]  
--
  [--]  
--
  [--]  
-- --
Raw TAF
KPHL 212323Z 2200/2306 12006KT P6SM BKN060
  FM220600 10004KT 6SM BR BKN020
  TEMPO 2208/2212 BKN008
  FM221400 15008KT P6SM BKN035
  FM221700 16012G23KT P6SM SCT025 BKN040
  FM230000 14010KT P6SM BKN015


Raw METAR
KPHL 212354Z 11006KT 10SM FEW035 SCT065 BKN260 23/18 A3024 RMK AO2 SLP238 T02280178 10283 20228 56004
KPHL 212254Z 13005KT 10SM FEW035 SCT065 BKN260 24/17 A3024 RMK AO2 SLP238 T02390172
KPHL 212154Z 13006KT 10SM FEW040 SCT065 BKN260 26/18 A3024 RMK AO2 SLP239 T02610178

METAR Board
Radar Display
Forecast Discussion
For situational awareness. Not to be used for flight planning purposes.